Nearby METAR Reports

 

KRUT - Rutland State, Vermont, USA
Distance from station: NW 10mi, 17km
Updated: Tue, 11-Dec-2018 5:56pm EST
Few Clouds
Few Clouds
 Wind from calm
Wind: Calm
Temperature: 19°F , -7°C
Dew Point: 16°F , -9°C
Humidity: 86%
Barometer: 29.95 inHg , 1014.2 hPa
Clouds: Few Clouds
Visibility: 10 miles , 16 km
Cloud details: Few Clouds 3200 ft
2018/12/11 22:56 KRUT 112256Z AUTO 00000KT 10SM FEW032 M07/M09 A2995 RMK AO2 SLP164 T10671094 FZRANO PNO $
KVSF - Springfield, Vermont, USA
Distance from station: ESE 15mi, 23km
Updated: Tue, 11-Dec-2018 5:54pm EST
Overcast
Overcast
 Wind from calm
Wind: Calm
Temperature: 27°F , -3°C
Dew Point: 18°F , -8°C
Humidity: 69%
Barometer: 29.96 inHg , 1014.6 hPa
Clouds: Overcast
Visibility: 10 miles , 16 km
Cloud details: Overcast 3900 ft
2018/12/11 22:54 KVSF 112254Z AUTO 00000KT 10SM OVC039 M03/M08 A2996 RMK AO2 SLP157 T10281083
 
KLEB - Lebanon, New Hampshire, USA
Distance from station: ENE 28mi, 46km
Updated: Tue, 11-Dec-2018 5:53pm EST
Mostly cloudy
Mostly cloudy
 Wind from calm
Wind: Calm
Temperature: 21°F , -6°C
Dew Point: 12°F , -11°C
Humidity: 68%
Barometer: 29.95 inHg , 1014.2 hPa
Clouds: Mostly cloudy
Visibility: 10 miles , 16 km
Cloud details: Mostly cloudy 4600 ft
2018/12/11 22:53 KLEB 112253Z 00000KT 10SM BKN046 M06/M11 A2995 RMK AO2 SLP159 T10611111
K6B0 - Middlebury, Vermont, USA
Distance from station: NNW 42mi, 67km
Updated: Tue, 11-Dec-2018 6:15pm EST
Overcast
Overcast
 Wind from calm
Wind: Calm
Temperature: 23°F , -5°C
Dew Point: 16°F , -9°C
Humidity: 74%
Barometer: 29.96 inHg , 1014.6 hPa
Clouds: Overcast
Visibility: 10 miles , 16 km
Cloud details: Overcast 6000 ft
2018/12/11 23:15 K6B0 112315Z AUTO 00000KT 10SM OVC060 M05/M09 A2996 RMK AO2 T10511088
 
KGFL - Glens Falls, New York, USA
Distance from station: W 42mi, 68km
Updated: Tue, 11-Dec-2018 5:53pm EST
Overcast
Overcast
 Wind from calm
Wind: Calm
Temperature: 25°F , -4°C
Dew Point: 16°F , -9°C
Humidity: 69%
Barometer: 29.98 inHg , 1015.2 hPa
Clouds: Overcast
Visibility: 10 miles , 16 km
Cloud details: Mostly cloudy 3900 ft
Overcast 4600 ft
2018/12/11 22:53 KGFL 112253Z AUTO 00000KT 10SM BKN039 OVC046 M04/M09 A2998 RMK AO2 SLP163 T10391089
KDDH - Bennington, Vermont, USA
Distance from station: SSW 43mi, 69km
Updated: Tue, 11-Dec-2018 5:54pm EST
Overcast
Overcast
 Wind from calm
Wind: Calm
Temperature: 27°F , -3°C
Dew Point: 18°F , -8°C
Humidity: 69%
Barometer: 29.95 inHg , 1014.2 hPa
Clouds: Overcast
Visibility: 10 miles , 16 km
Cloud details: Overcast 3500 ft
2018/12/11 22:54 KDDH 112254Z AUTO 00000KT 10SM OVC035 M03/M08 A2995 RMK AO2 SLP154 T10281078
 
KEEN - Keene/Dillant, New Hampshire, USA
Distance from station: SE 46mi, 73km
Updated: Tue, 11-Dec-2018 5:56pm EST
Overcast
Overcast
 Wind from calm
Wind: Calm
Temperature: 27°F , -3°C
Dew Point: 18°F , -8°C
Humidity: 69%
Barometer: 29.96 inHg , 1014.6 hPa
Clouds: Overcast
Visibility: 10 miles , 16 km
Cloud details: Overcast 4300 ft
2018/12/11 22:56 KEEN 112256Z AUTO 00000KT 10SM OVC043 M03/M08 A2996 RMK AO2 SLP168 T10331078 FZRANO $
KALB - Albany, New York, USA
Distance from station: SW 69mi, 111km
Updated: Tue, 11-Dec-2018 5:51pm EST
Light snow, Overcast
Light snow, Overcast
 Wind from WNW
Wind: WNW 6 mph , 9 km/h
Temperature: 28°F , -2°C
Wind Chill: 21°F , -6°C
Dew Point: 18°F , -8°C
Humidity: 64%
Barometer: 30.00 inHg , 1015.9 hPa
Summary: Light Snow
Clouds: Overcast
Visibility: 10 miles , 16 km
Cloud details: Overcast 3600 ft
2018/12/11 22:51 KALB 112251Z 30005KT 10SM -SN OVC036 M02/M08 A3000 RMK AO2 SNB43 SLP162 PCPN VRY LGT P0000 T10171083
 
KSCH - Schenectady Airp, New York, USA
Distance from station: SW 69mi, 111km
Updated: Tue, 11-Dec-2018 5:54pm EST
Overcast
Overcast
 Wind from calm
Wind: Calm
Temperature: 28°F , -2°C
Dew Point: 19°F , -7°C
Humidity: 69%
Barometer: 29.98 inHg , 1015.2 hPa
Clouds: Overcast
Visibility: 10 miles , 16 km
Cloud details: Mostly cloudy 2900 ft
Overcast 3600 ft
2018/12/11 22:54 KSCH 112254Z 00000KT 10SM BKN029 OVC036 M02/M07 A2998
KLCI - Laconia Muni, New Hampshire, USA
Distance from station: E 69mi, 112km
Updated: Tue, 11-Dec-2018 5:56pm EST
Clear
Clear
 Wind from calm
Wind: Calm
Temperature: 18°F , -8°C
Dew Point: 10°F , -12°C
Humidity: 73%
Barometer: 29.96 inHg , 1014.6 hPa
Clouds: Clear
Visibility: 10 miles , 16 km
2018/12/11 22:56 KLCI 112256Z AUTO 00000KT 10SM CLR M08/M12 A2996 RMK AO2 SLP164 T10831122 FZRANO $
 
KBTV - Burlington, Vermont, USA
Distance from station: NNW 74mi, 120km
Updated: Tue, 11-Dec-2018 5:54pm EST
Overcast
Overcast
 Wind from S
Wind: S 6 mph , 9 km/h
Temperature: 28°F , -2°C
Wind Chill: 21°F , -6°C
Dew Point: 18°F , -8°C
Humidity: 64%
Barometer: 29.96 inHg , 1014.6 hPa
Clouds: Overcast
Visibility: 10 miles , 16 km
Cloud details: Few Clouds 4800 ft
Overcast 6500 ft
2018/12/11 22:54 KBTV 112254Z 19005KT 10SM FEW048 OVC065 M02/M08 A2996 RMK AO2 SLP151 T10221083
KMHT - Manchester, New Hampshire, USA
Distance from station: ESE 76mi, 123km
Updated: Tue, 11-Dec-2018 5:53pm EST
Few Clouds
Few Clouds
 Wind from calm
Wind: Calm
Temperature: 27°F , -3°C
Dew Point: 16°F , -9°C
Humidity: 64%
Barometer: 29.95 inHg , 1014.2 hPa
Clouds: Few Clouds
Visibility: 10 miles , 16 km
Cloud details: Few Clouds 4500 ft
2018/12/11 22:53 KMHT 112253Z 00000KT 10SM FEW045 M03/M09 A2995 RMK AO2 SLP163 T10281094
 
KMVL - Morrisville, Vermont, USA
Distance from station: N 77mi, 124km
Updated: Tue, 11-Dec-2018 5:54pm EST
Overcast
Overcast
 Wind from SW
Wind: SW 3 mph , 6 km/h
Temperature: 12°F , -11°C
Dew Point: 12°F , -11°C
Humidity: 100%
Barometer: 29.96 inHg , 1014.6 hPa
Clouds: Overcast
Visibility: 10 miles , 16 km
Cloud details: Overcast 6500 ft
2018/12/11 22:54 KMVL 112254Z AUTO 22003KT 10SM OVC065 M11/M11 A2996 RMK AO2 SLP165 T11061111